Overcast Current Weather (METAR) For Innsbruck - Kranebitten Airport

All times on the weather descriptions are local

Observed at 06:50 - (33 mins ago)

Overcast

5°C

Overcast
Clouds: Few Clouds at 400ft, Overcast at 500ft
Wind: 240° at 06 knots, varying from 210° to 280
Visibility: Greater than 10km
QNH: 1011
Dew Point: 5°C
Runway in Use: Runway 26

Sunrise Today: 07:34
Sunset Today: 16:30

Forecast Weather (TAF) For Innsbruck - Kranebitten Airport

Issued at 01:00 - (2 days 17 hrs ago)


Runway in Use: Unable to determine, wind is clam

Forecast valid until 01:00 on Sunday

METAR/TAF RAW METAR / TAF

LOWI 270550Z 24006KT 210V280 9999 FEW004 OVC005 05/05 Q1011 NOSIG

Weather Widget

Put weather from any of our airports on your website with our weather widget.

Find Another Search

Airport Search


Please Wait Please Wait - Loading
Close
Close

Login

Username:

Password:

Remember Me:

Remember me on this computer

Forgotten your password? Get a reset password sent to your registered e-mail address

Close

User Private Message

Subject:

Message: